sensor_id;sensor_type;location;lat;lon;timestamp;P1;durP1;ratioP1;P2;durP2;ratioP2
54259;SDS011;40172;53.022;7.012;2023-06-22T00:00:57;58.05;;;38.13;;
54259;SDS011;40172;53.022;7.012;2023-06-22T00:03:24;49.10;;;35.70;;
54259;SDS011;40172;53.022;7.012;2023-06-22T00:05:50;59.25;;;38.60;;
54259;SDS011;40172;53.022;7.012;2023-06-22T00:08:17;54.80;;;36.83;;
54259;SDS011;40172;53.022;7.012;2023-06-22T00:10:43;51.20;;;37.00;;
54259;SDS011;40172;53.022;7.012;2023-06-22T00:13:09;55.88;;;40.55;;
54259;SDS011;40172;53.022;7.012;2023-06-22T00:15:36;66.13;;;40.55;;
54259;SDS011;40172;53.022;7.012;2023-06-22T00:18:04;52.83;;;37.25;;
54259;SDS011;40172;53.022;7.012;2023-06-22T00:20:31;54.13;;;37.58;;
54259;SDS011;40172;53.022;7.012;2023-06-22T00:22:57;57.38;;;39.05;;
54259;SDS011;40172;53.022;7.012;2023-06-22T00:25:24;57.33;;;41.17;;
54259;SDS011;40172;53.022;7.012;2023-06-22T00:27:50;62.55;;;41.45;;
54259;SDS011;40172;53.022;7.012;2023-06-22T00:30:16;71.70;;;45.58;;
54259;SDS011;40172;53.022;7.012;2023-06-22T00:32:43;69.40;;;43.78;;
54259;SDS011;40172;53.022;7.012;2023-06-22T00:35:09;59.20;;;40.72;;
54259;SDS011;40172;53.022;7.012;2023-06-22T00:37:35;54.95;;;39.42;;
54259;SDS011;40172;53.022;7.012;2023-06-22T00:40:02;58.65;;;40.25;;
54259;SDS011;40172;53.022;7.012;2023-06-22T00:42:29;62.30;;;42.92;;
54259;SDS011;40172;53.022;7.012;2023-06-22T00:44:55;60.70;;;42.72;;
54259;SDS011;40172;53.022;7.012;2023-06-22T00:47:21;55.22;;;41.67;;
54259;SDS011;40172;53.022;7.012;2023-06-22T00:49:48;59.17;;;42.00;;
54259;SDS011;40172;53.022;7.012;2023-06-22T00:52:18;60.60;;;38.95;;
54259;SDS011;40172;53.022;7.012;2023-06-22T00:54:50;63.75;;;41.75;;
54259;SDS011;40172;53.022;7.012;2023-06-22T00:57:16;74.95;;;43.33;;
54259;SDS011;40172;53.022;7.012;2023-06-22T00:59:43;78.40;;;46.70;;
54259;SDS011;40172;53.022;7.012;2023-06-22T01:02:10;67.57;;;46.05;;
54259;SDS011;40172;53.022;7.012;2023-06-22T01:04:36;72.97;;;47.00;;
54259;SDS011;40172;53.022;7.012;2023-06-22T01:07:49;64.70;;;37.03;;
54259;SDS011;40172;53.022;7.012;2023-06-22T01:10:03;112.47;;;54.17;;
54259;SDS011;40172;53.022;7.012;2023-06-22T01:12:48;81.45;;;45.72;;
54259;SDS011;40172;53.022;7.012;2023-06-22T01:15:23;64.10;;;45.58;;
54259;SDS011;40172;53.022;7.012;2023-06-22T01:17:56;68.38;;;44.03;;
54259;SDS011;40172;53.022;7.012;2023-06-22T01:20:23;68.05;;;43.70;;
54259;SDS011;40172;53.022;7.012;2023-06-22T01:26:04;63.38;;;42.13;;
54259;SDS011;40172;53.022;7.012;2023-06-22T01:28:53;72.20;;;45.25;;
54259;SDS011;40172;53.022;7.012;2023-06-22T01:31:22;62.25;;;40.38;;
54259;SDS011;40172;53.022;7.012;2023-06-22T01:33:51;72.32;;;43.13;;
54259;SDS011;40172;53.022;7.012;2023-06-22T01:36:19;81.55;;;44.10;;
54259;SDS011;40172;53.022;7.012;2023-06-22T01:38:46;84.28;;;47.85;;
54259;SDS011;40172;53.022;7.012;2023-06-22T01:41:13;67.53;;;47.47;;
54259;SDS011;40172;53.022;7.012;2023-06-22T01:43:40;90.90;;;54.05;;
54259;SDS011;40172;53.022;7.012;2023-06-22T01:46:06;86.10;;;48.13;;
54259;SDS011;40172;53.022;7.012;2023-06-22T01:48:32;88.40;;;50.40;;
54259;SDS011;40172;53.022;7.012;2023-06-22T01:50:59;116.85;;;55.13;;
54259;SDS011;40172;53.022;7.012;2023-06-22T01:53:24;88.47;;;54.63;;
54259;SDS011;40172;53.022;7.012;2023-06-22T01:55:50;88.10;;;52.88;;
54259;SDS011;40172;53.022;7.012;2023-06-22T01:58:16;110.18;;;56.67;;
54259;SDS011;40172;53.022;7.012;2023-06-22T02:00:44;100.35;;;56.60;;
54259;SDS011;40172;53.022;7.012;2023-06-22T02:03:22;106.38;;;60.15;;
54259;SDS011;40172;53.022;7.012;2023-06-22T02:05:56;112.38;;;64.68;;
54259;SDS011;40172;53.022;7.012;2023-06-22T02:08:32;78.97;;;49.22;;
54259;SDS011;40172;53.022;7.012;2023-06-22T02:11:06;136.68;;;56.85;;
54259;SDS011;40172;53.022;7.012;2023-06-22T02:13:34;83.40;;;51.85;;
54259;SDS011;40172;53.022;7.012;2023-06-22T02:16:01;102.82;;;58.17;;
54259;SDS011;40172;53.022;7.012;2023-06-22T02:18:27;104.93;;;59.83;;
54259;SDS011;40172;53.022;7.012;2023-06-22T02:20:53;105.88;;;59.58;;
54259;SDS011;40172;53.022;7.012;2023-06-22T02:23:18;110.15;;;61.70;;
54259;SDS011;40172;53.022;7.012;2023-06-22T02:25:44;105.78;;;60.75;;
54259;SDS011;40172;53.022;7.012;2023-06-22T02:28:10;104.70;;;63.38;;
54259;SDS011;40172;53.022;7.012;2023-06-22T02:30:36;107.28;;;61.92;;
54259;SDS011;40172;53.022;7.012;2023-06-22T02:33:01;105.18;;;63.10;;
54259;SDS011;40172;53.022;7.012;2023-06-22T02:35:30;104.57;;;57.72;;
54259;SDS011;40172;53.022;7.012;2023-06-22T02:38:00;101.43;;;56.50;;
54259;SDS011;40172;53.022;7.012;2023-06-22T02:40:27;156.80;;;64.55;;
54259;SDS011;40172;53.022;7.012;2023-06-22T02:42:54;80.22;;;47.35;;
54259;SDS011;40172;53.022;7.012;2023-06-22T02:45:20;164.55;;;59.95;;
54259;SDS011;40172;53.022;7.012;2023-06-22T02:47:46;104.32;;;60.67;;
54259;SDS011;40172;53.022;7.012;2023-06-22T02:50:12;104.35;;;59.42;;
54259;SDS011;40172;53.022;7.012;2023-06-22T02:52:38;163.38;;;71.50;;
54259;SDS011;40172;53.022;7.012;2023-06-22T02:55:04;109.03;;;62.33;;
54259;SDS011;40172;53.022;7.012;2023-06-22T02:57:32;96.60;;;58.20;;
54259;SDS011;40172;53.022;7.012;2023-06-22T02:59:59;100.85;;;57.75;;
54259;SDS011;40172;53.022;7.012;2023-06-22T03:02:25;83.40;;;54.00;;
54259;SDS011;40172;53.022;7.012;2023-06-22T03:04:51;78.03;;;48.72;;
54259;SDS011;40172;53.022;7.012;2023-06-22T03:07:19;83.20;;;50.08;;
54259;SDS011;40172;53.022;7.012;2023-06-22T03:09:45;142.98;;;60.28;;
54259;SDS011;40172;53.022;7.012;2023-06-22T03:12:11;221.27;;;63.00;;
54259;SDS011;40172;53.022;7.012;2023-06-22T03:14:36;158.32;;;61.97;;
54259;SDS011;40172;53.022;7.012;2023-06-22T03:17:04;128.27;;;59.33;;
54259;SDS011;40172;53.022;7.012;2023-06-22T03:19:30;101.88;;;59.58;;
54259;SDS011;40172;53.022;7.012;2023-06-22T03:21:57;98.30;;;59.10;;
54259;SDS011;40172;53.022;7.012;2023-06-22T03:24:24;103.43;;;61.13;;
54259;SDS011;40172;53.022;7.012;2023-06-22T03:26:49;99.82;;;59.20;;
54259;SDS011;40172;53.022;7.012;2023-06-22T03:29:15;103.55;;;60.83;;
54259;SDS011;40172;53.022;7.012;2023-06-22T03:31:41;102.68;;;58.78;;
54259;SDS011;40172;53.022;7.012;2023-06-22T03:34:06;129.40;;;74.22;;
54259;SDS011;40172;53.022;7.012;2023-06-22T03:36:32;119.22;;;63.35;;
54259;SDS011;40172;53.022;7.012;2023-06-22T03:38:57;80.53;;;52.03;;
54259;SDS011;40172;53.022;7.012;2023-06-22T03:41:23;79.00;;;47.92;;
54259;SDS011;40172;53.022;7.012;2023-06-22T03:43:48;80.50;;;47.75;;
54259;SDS011;40172;53.022;7.012;2023-06-22T03:46:14;66.28;;;46.65;;
54259;SDS011;40172;53.022;7.012;2023-06-22T03:48:40;117.20;;;59.45;;
54259;SDS011;40172;53.022;7.012;2023-06-22T03:51:05;88.25;;;55.20;;
54259;SDS011;40172;53.022;7.012;2023-06-22T03:53:31;93.47;;;57.42;;
54259;SDS011;40172;53.022;7.012;2023-06-22T03:55:56;112.25;;;65.38;;
54259;SDS011;40172;53.022;7.012;2023-06-22T03:58:22;148.45;;;81.65;;
54259;SDS011;40172;53.022;7.012;2023-06-22T04:00:48;132.98;;;78.15;;
54259;SDS011;40172;53.022;7.012;2023-06-22T04:03:15;135.32;;;77.75;;
54259;SDS011;40172;53.022;7.012;2023-06-22T04:05:40;167.80;;;85.50;;
54259;SDS011;40172;53.022;7.012;2023-06-22T04:08:07;150.70;;;82.72;;
54259;SDS011;40172;53.022;7.012;2023-06-22T04:10:33;136.82;;;79.85;;
54259;SDS011;40172;53.022;7.012;2023-06-22T04:12:59;128.57;;;78.57;;
54259;SDS011;40172;53.022;7.012;2023-06-22T04:15:25;139.90;;;81.75;;
54259;SDS011;40172;53.022;7.012;2023-06-22T04:17:50;131.18;;;77.30;;
54259;SDS011;40172;53.022;7.012;2023-06-22T04:20:16;118.70;;;73.78;;
54259;SDS011;40172;53.022;7.012;2023-06-22T04:22:42;116.60;;;72.13;;
54259;SDS011;40172;53.022;7.012;2023-06-22T04:25:07;104.57;;;64.28;;
54259;SDS011;40172;53.022;7.012;2023-06-22T04:27:33;93.60;;;62.53;;
54259;SDS011;40172;53.022;7.012;2023-06-22T04:30:07;94.00;;;60.60;;
54259;SDS011;40172;53.022;7.012;2023-06-22T04:32:34;88.90;;;59.78;;
54259;SDS011;40172;53.022;7.012;2023-06-22T04:35:01;81.43;;;57.28;;
54259;SDS011;40172;53.022;7.012;2023-06-22T04:37:31;80.60;;;54.20;;
54259;SDS011;40172;53.022;7.012;2023-06-22T04:39:57;75.63;;;53.10;;
54259;SDS011;40172;53.022;7.012;2023-06-22T04:42:24;67.22;;;49.00;;
54259;SDS011;40172;53.022;7.012;2023-06-22T04:44:53;70.50;;;50.67;;
54259;SDS011;40172;53.022;7.012;2023-06-22T04:47:19;65.10;;;49.90;;
54259;SDS011;40172;53.022;7.012;2023-06-22T04:49:44;68.20;;;48.55;;
54259;SDS011;40172;53.022;7.012;2023-06-22T04:52:11;64.68;;;46.55;;
54259;SDS011;40172;53.022;7.012;2023-06-22T04:54:38;62.03;;;47.15;;
54259;SDS011;40172;53.022;7.012;2023-06-22T04:57:06;60.05;;;45.10;;
54259;SDS011;40172;53.022;7.012;2023-06-22T04:59:35;55.03;;;42.80;;
54259;SDS011;40172;53.022;7.012;2023-06-22T05:02:04;53.55;;;40.90;;
54259;SDS011;40172;53.022;7.012;2023-06-22T05:04:30;49.10;;;38.67;;
54259;SDS011;40172;53.022;7.012;2023-06-22T05:06:57;48.13;;;38.72;;
54259;SDS011;40172;53.022;7.012;2023-06-22T05:09:23;46.47;;;36.50;;
54259;SDS011;40172;53.022;7.012;2023-06-22T05:11:49;44.97;;;36.50;;
54259;SDS011;40172;53.022;7.012;2023-06-22T05:14:15;44.42;;;35.75;;
54259;SDS011;40172;53.022;7.012;2023-06-22T05:16:42;43.38;;;34.75;;
54259;SDS011;40172;53.022;7.012;2023-06-22T05:19:08;38.25;;;33.00;;
54259;SDS011;40172;53.022;7.012;2023-06-22T05:21:34;37.97;;;31.55;;
54259;SDS011;40172;53.022;7.012;2023-06-22T05:23:59;39.22;;;31.20;;
54259;SDS011;40172;53.022;7.012;2023-06-22T05:26:27;42.15;;;32.38;;
54259;SDS011;40172;53.022;7.012;2023-06-22T05:28:53;40.42;;;32.05;;
54259;SDS011;40172;53.022;7.012;2023-06-22T05:31:19;37.30;;;29.95;;
54259;SDS011;40172;53.022;7.012;2023-06-22T05:33:45;35.35;;;28.10;;
54259;SDS011;40172;53.022;7.012;2023-06-22T05:36:11;36.05;;;27.58;;
54259;SDS011;40172;53.022;7.012;2023-06-22T05:38:37;33.63;;;26.98;;
54259;SDS011;40172;53.022;7.012;2023-06-22T05:41:03;32.65;;;25.67;;
54259;SDS011;40172;53.022;7.012;2023-06-22T05:43:29;29.48;;;24.55;;
54259;SDS011;40172;53.022;7.012;2023-06-22T05:45:55;29.80;;;23.90;;
54259;SDS011;40172;53.022;7.012;2023-06-22T05:48:21;25.95;;;22.55;;
54259;SDS011;40172;53.022;7.012;2023-06-22T05:50:46;27.60;;;22.67;;
54259;SDS011;40172;53.022;7.012;2023-06-22T05:53:12;24.55;;;21.25;;
54259;SDS011;40172;53.022;7.012;2023-06-22T05:55:37;24.63;;;19.27;;
54259;SDS011;40172;53.022;7.012;2023-06-22T05:58:03;26.05;;;19.73;;
54259;SDS011;40172;53.022;7.012;2023-06-22T06:00:29;21.77;;;17.58;;
54259;SDS011;40172;53.022;7.012;2023-06-22T06:02:55;18.17;;;15.88;;
54259;SDS011;40172;53.022;7.012;2023-06-22T06:05:20;19.17;;;15.63;;
54259;SDS011;40172;53.022;7.012;2023-06-22T06:07:46;19.75;;;16.63;;
54259;SDS011;40172;53.022;7.012;2023-06-22T06:10:12;20.60;;;16.55;;
54259;SDS011;40172;53.022;7.012;2023-06-22T06:12:37;18.42;;;16.45;;
54259;SDS011;40172;53.022;7.012;2023-06-22T06:15:03;19.50;;;16.45;;
54259;SDS011;40172;53.022;7.012;2023-06-22T06:17:30;19.02;;;16.67;;
54259;SDS011;40172;53.022;7.012;2023-06-22T06:19:55;19.75;;;16.33;;
54259;SDS011;40172;53.022;7.012;2023-06-22T06:22:21;18.25;;;16.35;;
54259;SDS011;40172;53.022;7.012;2023-06-22T06:24:48;22.40;;;17.88;;
54259;SDS011;40172;53.022;7.012;2023-06-22T06:27:14;19.55;;;16.35;;
54259;SDS011;40172;53.022;7.012;2023-06-22T06:29:40;18.13;;;15.85;;
54259;SDS011;40172;53.022;7.012;2023-06-22T06:32:05;18.83;;;16.38;;
54259;SDS011;40172;53.022;7.012;2023-06-22T06:34:31;20.05;;;16.15;;
54259;SDS011;40172;53.022;7.012;2023-06-22T06:36:57;20.00;;;16.15;;
54259;SDS011;40172;53.022;7.012;2023-06-22T06:39:23;17.52;;;15.65;;
54259;SDS011;40172;53.022;7.012;2023-06-22T06:41:48;17.38;;;14.35;;
54259;SDS011;40172;53.022;7.012;2023-06-22T06:44:14;20.75;;;15.05;;
54259;SDS011;40172;53.022;7.012;2023-06-22T06:46:39;19.33;;;14.75;;
54259;SDS011;40172;53.022;7.012;2023-06-22T06:49:06;20.50;;;15.23;;
54259;SDS011;40172;53.022;7.012;2023-06-22T06:51:32;16.17;;;13.75;;
54259;SDS011;40172;53.022;7.012;2023-06-22T06:53:58;17.60;;;13.90;;
54259;SDS011;40172;53.022;7.012;2023-06-22T06:56:23;15.80;;;14.18;;
54259;SDS011;40172;53.022;7.012;2023-06-22T06:58:49;16.90;;;12.65;;
54259;SDS011;40172;53.022;7.012;2023-06-22T07:01:16;14.55;;;12.90;;
54259;SDS011;40172;53.022;7.012;2023-06-22T07:03:41;18.17;;;14.13;;
54259;SDS011;40172;53.022;7.012;2023-06-22T07:06:08;16.05;;;13.05;;
54259;SDS011;40172;53.022;7.012;2023-06-22T07:08:34;14.52;;;12.95;;
54259;SDS011;40172;53.022;7.012;2023-06-22T07:11:01;16.70;;;13.55;;
54259;SDS011;40172;53.022;7.012;2023-06-22T07:13:27;13.40;;;11.95;;
54259;SDS011;40172;53.022;7.012;2023-06-22T07:15:53;14.98;;;12.60;;
54259;SDS011;40172;53.022;7.012;2023-06-22T07:18:18;15.15;;;12.68;;
54259;SDS011;40172;53.022;7.012;2023-06-22T07:20:44;18.90;;;13.05;;
54259;SDS011;40172;53.022;7.012;2023-06-22T07:23:09;14.07;;;12.25;;
54259;SDS011;40172;53.022;7.012;2023-06-22T07:25:35;12.35;;;10.82;;
54259;SDS011;40172;53.022;7.012;2023-06-22T07:28:05;11.70;;;9.70;;
54259;SDS011;40172;53.022;7.012;2023-06-22T07:30:31;14.55;;;9.20;;
54259;SDS011;40172;53.022;7.012;2023-06-22T07:32:58;13.68;;;8.88;;
54259;SDS011;40172;53.022;7.012;2023-06-22T07:35:28;9.93;;;8.80;;
54259;SDS011;40172;53.022;7.012;2023-06-22T07:37:57;20.15;;;9.98;;
54259;SDS011;40172;53.022;7.012;2023-06-22T07:40:23;10.02;;;8.43;;
54259;SDS011;40172;53.022;7.012;2023-06-22T07:42:48;9.40;;;8.40;;
54259;SDS011;40172;53.022;7.012;2023-06-22T07:45:16;12.43;;;8.45;;
54259;SDS011;40172;53.022;7.012;2023-06-22T07:47:42;10.13;;;9.13;;
54259;SDS011;40172;53.022;7.012;2023-06-22T07:50:08;14.73;;;10.75;;
54259;SDS011;40172;53.022;7.012;2023-06-22T07:52:34;12.18;;;8.57;;
54259;SDS011;40172;53.022;7.012;2023-06-22T07:55:00;11.13;;;9.00;;
54259;SDS011;40172;53.022;7.012;2023-06-22T07:57:25;13.52;;;9.52;;
54259;SDS011;40172;53.022;7.012;2023-06-22T08:00:02;12.80;;;8.82;;
54259;SDS011;40172;53.022;7.012;2023-06-22T08:02:36;12.45;;;9.45;;
54259;SDS011;40172;53.022;7.012;2023-06-22T08:05:01;12.50;;;9.77;;
54259;SDS011;40172;53.022;7.012;2023-06-22T08:07:27;16.23;;;8.55;;
54259;SDS011;40172;53.022;7.012;2023-06-22T08:09:52;16.38;;;8.80;;
54259;SDS011;40172;53.022;7.012;2023-06-22T08:12:18;106.90;;;14.55;;
54259;SDS011;40172;53.022;7.012;2023-06-22T08:14:44;139.07;;;15.90;;
54259;SDS011;40172;53.022;7.012;2023-06-22T08:17:11;14.45;;;9.82;;
54259;SDS011;40172;53.022;7.012;2023-06-22T08:19:37;18.63;;;12.52;;
54259;SDS011;40172;53.022;7.012;2023-06-22T08:22:03;107.50;;;13.10;;
54259;SDS011;40172;53.022;7.012;2023-06-22T08:24:28;34.38;;;10.68;;
54259;SDS011;40172;53.022;7.012;2023-06-22T08:26:55;44.85;;;9.85;;
54259;SDS011;40172;53.022;7.012;2023-06-22T08:29:21;15.50;;;8.57;;
54259;SDS011;40172;53.022;7.012;2023-06-22T08:31:47;16.48;;;9.90;;
54259;SDS011;40172;53.022;7.012;2023-06-22T08:34:12;249.43;;;18.13;;
54259;SDS011;40172;53.022;7.012;2023-06-22T08:36:38;188.65;;;15.30;;
54259;SDS011;40172;53.022;7.012;2023-06-22T08:39:06;35.55;;;10.13;;
54259;SDS011;40172;53.022;7.012;2023-06-22T08:41:33;17.70;;;10.63;;
54259;SDS011;40172;53.022;7.012;2023-06-22T08:43:59;13.02;;;9.40;;
54259;SDS011;40172;53.022;7.012;2023-06-22T08:46:24;32.83;;;10.90;;
54259;SDS011;40172;53.022;7.012;2023-06-22T08:48:55;11.68;;;9.65;;
54259;SDS011;40172;53.022;7.012;2023-06-22T08:51:22;12.63;;;10.25;;
54259;SDS011;40172;53.022;7.012;2023-06-22T08:53:48;12.57;;;9.30;;
54259;SDS011;40172;53.022;7.012;2023-06-22T08:56:14;13.80;;;10.63;;
54259;SDS011;40172;53.022;7.012;2023-06-22T08:58:39;22.15;;;10.38;;
54259;SDS011;40172;53.022;7.012;2023-06-22T09:01:05;18.77;;;10.35;;
54259;SDS011;40172;53.022;7.012;2023-06-22T09:03:31;21.17;;;10.50;;
54259;SDS011;40172;53.022;7.012;2023-06-22T09:05:57;15.98;;;10.52;;
54259;SDS011;40172;53.022;7.012;2023-06-22T09:08:23;13.80;;;9.80;;
54259;SDS011;40172;53.022;7.012;2023-06-22T09:10:49;25.35;;;10.82;;
54259;SDS011;40172;53.022;7.012;2023-06-22T09:13:15;17.13;;;9.90;;
54259;SDS011;40172;53.022;7.012;2023-06-22T09:15:41;22.70;;;12.30;;
54259;SDS011;40172;53.022;7.012;2023-06-22T09:18:06;15.50;;;10.27;;
54259;SDS011;40172;53.022;7.012;2023-06-22T09:20:35;15.15;;;9.75;;
54259;SDS011;40172;53.022;7.012;2023-06-22T09:23:00;10.45;;;8.60;;
54259;SDS011;40172;53.022;7.012;2023-06-22T09:25:26;17.25;;;10.30;;
54259;SDS011;40172;53.022;7.012;2023-06-22T09:27:52;13.35;;;10.30;;
54259;SDS011;40172;53.022;7.012;2023-06-22T09:30:17;12.35;;;10.07;;
54259;SDS011;40172;53.022;7.012;2023-06-22T09:32:44;13.10;;;8.98;;
54259;SDS011;40172;53.022;7.012;2023-06-22T09:35:09;14.35;;;9.98;;
54259;SDS011;40172;53.022;7.012;2023-06-22T09:37:37;13.20;;;9.35;;
54259;SDS011;40172;53.022;7.012;2023-06-22T09:40:03;11.27;;;8.85;;
54259;SDS011;40172;53.022;7.012;2023-06-22T09:42:33;14.18;;;9.85;;
54259;SDS011;40172;53.022;7.012;2023-06-22T09:44:59;12.50;;;9.40;;
54259;SDS011;40172;53.022;7.012;2023-06-22T09:47:27;13.20;;;8.60;;
54259;SDS011;40172;53.022;7.012;2023-06-22T09:49:53;12.50;;;9.38;;
54259;SDS011;40172;53.022;7.012;2023-06-22T09:52:20;16.95;;;7.95;;
54259;SDS011;40172;53.022;7.012;2023-06-22T09:54:49;15.30;;;9.57;;
54259;SDS011;40172;53.022;7.012;2023-06-22T09:57:14;15.05;;;8.70;;
54259;SDS011;40172;53.022;7.012;2023-06-22T09:59:40;13.68;;;8.60;;
54259;SDS011;40172;53.022;7.012;2023-06-22T10:02:06;11.35;;;8.45;;
54259;SDS011;40172;53.022;7.012;2023-06-22T10:04:33;11.77;;;9.55;;
54259;SDS011;40172;53.022;7.012;2023-06-22T10:06:59;11.80;;;8.82;;
54259;SDS011;40172;53.022;7.012;2023-06-22T10:09:25;14.40;;;8.98;;
54259;SDS011;40172;53.022;7.012;2023-06-22T10:11:50;16.05;;;8.40;;
54259;SDS011;40172;53.022;7.012;2023-06-22T10:14:16;11.20;;;8.43;;
54259;SDS011;40172;53.022;7.012;2023-06-22T10:16:42;11.18;;;8.45;;
54259;SDS011;40172;53.022;7.012;2023-06-22T10:19:07;13.85;;;9.15;;
54259;SDS011;40172;53.022;7.012;2023-06-22T10:21:33;14.98;;;10.18;;
54259;SDS011;40172;53.022;7.012;2023-06-22T10:23:59;14.18;;;9.93;;
54259;SDS011;40172;53.022;7.012;2023-06-22T10:26:31;15.25;;;9.85;;
54259;SDS011;40172;53.022;7.012;2023-06-22T10:28:57;17.80;;;9.10;;
54259;SDS011;40172;53.022;7.012;2023-06-22T10:31:22;13.02;;;7.82;;
54259;SDS011;40172;53.022;7.012;2023-06-22T10:33:48;13.18;;;8.82;;
54259;SDS011;40172;53.022;7.012;2023-06-22T10:36:14;12.10;;;8.95;;
54259;SDS011;40172;53.022;7.012;2023-06-22T10:38:40;13.48;;;9.27;;
54259;SDS011;40172;53.022;7.012;2023-06-22T10:41:05;12.00;;;8.73;;
54259;SDS011;40172;53.022;7.012;2023-06-22T10:43:31;12.93;;;9.40;;
54259;SDS011;40172;53.022;7.012;2023-06-22T10:45:57;15.05;;;8.68;;
54259;SDS011;40172;53.022;7.012;2023-06-22T10:48:22;12.57;;;8.77;;
54259;SDS011;40172;53.022;7.012;2023-06-22T10:50:48;11.73;;;7.30;;
54259;SDS011;40172;53.022;7.012;2023-06-22T10:53:13;13.40;;;9.30;;
54259;SDS011;40172;53.022;7.012;2023-06-22T10:55:39;11.73;;;8.68;;
54259;SDS011;40172;53.022;7.012;2023-06-22T10:58:04;9.63;;;8.02;;
54259;SDS011;40172;53.022;7.012;2023-06-22T11:00:30;11.73;;;8.07;;
54259;SDS011;40172;53.022;7.012;2023-06-22T11:02:55;9.02;;;8.10;;
54259;SDS011;40172;53.022;7.012;2023-06-22T11:05:21;12.60;;;9.00;;
54259;SDS011;40172;53.022;7.012;2023-06-22T11:07:47;12.23;;;9.55;;
54259;SDS011;40172;53.022;7.012;2023-06-22T11:10:14;12.30;;;9.73;;
54259;SDS011;40172;53.022;7.012;2023-06-22T11:12:40;10.77;;;8.95;;
54259;SDS011;40172;53.022;7.012;2023-06-22T11:15:07;10.77;;;8.73;;
54259;SDS011;40172;53.022;7.012;2023-06-22T11:17:34;11.38;;;7.78;;
54259;SDS011;40172;53.022;7.012;2023-06-22T11:20:00;10.48;;;7.90;;
54259;SDS011;40172;53.022;7.012;2023-06-22T11:22:26;13.25;;;8.82;;
54259;SDS011;40172;53.022;7.012;2023-06-22T11:24:51;12.57;;;9.00;;
54259;SDS011;40172;53.022;7.012;2023-06-22T11:27:17;12.50;;;7.45;;
54259;SDS011;40172;53.022;7.012;2023-06-22T11:29:42;13.63;;;9.55;;
54259;SDS011;40172;53.022;7.012;2023-06-22T11:32:08;11.55;;;8.10;;
54259;SDS011;40172;53.022;7.012;2023-06-22T11:34:34;12.10;;;8.05;;
54259;SDS011;40172;53.022;7.012;2023-06-22T11:36:59;9.48;;;7.60;;
54259;SDS011;40172;53.022;7.012;2023-06-22T11:39:25;9.27;;;7.65;;
54259;SDS011;40172;53.022;7.012;2023-06-22T11:41:51;10.05;;;6.88;;
54259;SDS011;40172;53.022;7.012;2023-06-22T11:44:16;9.60;;;7.90;;
54259;SDS011;40172;53.022;7.012;2023-06-22T11:46:42;9.48;;;7.38;;
54259;SDS011;40172;53.022;7.012;2023-06-22T11:49:08;7.95;;;6.80;;
54259;SDS011;40172;53.022;7.012;2023-06-22T11:51:33;8.38;;;6.30;;
54259;SDS011;40172;53.022;7.012;2023-06-22T11:53:59;12.70;;;6.85;;
54259;SDS011;40172;53.022;7.012;2023-06-22T11:56:25;9.48;;;6.60;;
54259;SDS011;40172;53.022;7.012;2023-06-22T11:58:50;14.07;;;7.30;;
54259;SDS011;40172;53.022;7.012;2023-06-22T12:01:16;7.05;;;6.10;;
54259;SDS011;40172;53.022;7.012;2023-06-22T12:03:42;8.35;;;6.60;;
54259;SDS011;40172;53.022;7.012;2023-06-22T12:06:10;7.93;;;6.40;;
54259;SDS011;40172;53.022;7.012;2023-06-22T12:08:36;8.45;;;5.88;;
54259;SDS011;40172;53.022;7.012;2023-06-22T12:11:02;9.70;;;5.70;;
54259;SDS011;40172;53.022;7.012;2023-06-22T12:13:27;10.45;;;6.50;;
54259;SDS011;40172;53.022;7.012;2023-06-22T12:15:53;9.95;;;5.80;;
54259;SDS011;40172;53.022;7.012;2023-06-22T12:18:19;6.93;;;5.03;;
54259;SDS011;40172;53.022;7.012;2023-06-22T12:20:46;9.00;;;5.10;;
54259;SDS011;40172;53.022;7.012;2023-06-22T12:23:12;8.90;;;5.18;;
54259;SDS011;40172;53.022;7.012;2023-06-22T12:25:37;6.75;;;5.32;;
54259;SDS011;40172;53.022;7.012;2023-06-22T12:28:03;7.38;;;5.32;;
54259;SDS011;40172;53.022;7.012;2023-06-22T12:30:29;10.43;;;5.78;;
54259;SDS011;40172;53.022;7.012;2023-06-22T12:32:55;9.55;;;6.07;;
54259;SDS011;40172;53.022;7.012;2023-06-22T12:35:21;8.13;;;5.95;;
54259;SDS011;40172;53.022;7.012;2023-06-22T12:37:47;8.48;;;6.30;;
54259;SDS011;40172;53.022;7.012;2023-06-22T12:40:12;9.00;;;6.03;;
54259;SDS011;40172;53.022;7.012;2023-06-22T12:42:38;10.23;;;6.15;;
54259;SDS011;40172;53.022;7.012;2023-06-22T12:45:05;7.13;;;5.25;;
54259;SDS011;40172;53.022;7.012;2023-06-22T12:47:31;8.98;;;5.43;;
54259;SDS011;40172;53.022;7.012;2023-06-22T12:49:56;7.35;;;5.88;;
54259;SDS011;40172;53.022;7.012;2023-06-22T12:52:22;6.82;;;4.65;;
54259;SDS011;40172;53.022;7.012;2023-06-22T12:54:48;7.28;;;4.82;;
54259;SDS011;40172;53.022;7.012;2023-06-22T12:57:14;5.38;;;4.53;;
54259;SDS011;40172;53.022;7.012;2023-06-22T12:59:39;9.70;;;5.25;;
54259;SDS011;40172;53.022;7.012;2023-06-22T13:02:05;12.27;;;5.28;;
54259;SDS011;40172;53.022;7.012;2023-06-22T13:04:31;7.97;;;5.15;;
54259;SDS011;40172;53.022;7.012;2023-06-22T13:06:56;6.88;;;4.68;;
54259;SDS011;40172;53.022;7.012;2023-06-22T13:09:22;7.43;;;5.25;;
54259;SDS011;40172;53.022;7.012;2023-06-22T13:11:47;7.30;;;5.28;;
54259;SDS011;40172;53.022;7.012;2023-06-22T13:14:13;6.40;;;5.10;;
54259;SDS011;40172;53.022;7.012;2023-06-22T13:16:41;8.75;;;5.05;;
54259;SDS011;40172;53.022;7.012;2023-06-22T13:19:06;8.40;;;5.35;;
54259;SDS011;40172;53.022;7.012;2023-06-22T13:21:32;7.38;;;4.88;;
54259;SDS011;40172;53.022;7.012;2023-06-22T13:23:59;7.78;;;5.10;;
54259;SDS011;40172;53.022;7.012;2023-06-22T13:26:25;8.88;;;5.57;;
54259;SDS011;40172;53.022;7.012;2023-06-22T13:28:50;8.10;;;6.05;;
54259;SDS011;40172;53.022;7.012;2023-06-22T13:31:17;15.43;;;5.15;;
54259;SDS011;40172;53.022;7.012;2023-06-22T13:33:43;6.05;;;5.05;;
54259;SDS011;40172;53.022;7.012;2023-06-22T13:36:11;10.50;;;5.50;;
54259;SDS011;40172;53.022;7.012;2023-06-22T13:38:36;6.53;;;5.00;;
54259;SDS011;40172;53.022;7.012;2023-06-22T13:41:03;8.35;;;5.13;;
54259;SDS011;40172;53.022;7.012;2023-06-22T13:43:29;7.10;;;4.90;;
54259;SDS011;40172;53.022;7.012;2023-06-22T13:45:55;13.52;;;5.28;;
54259;SDS011;40172;53.022;7.012;2023-06-22T13:48:21;6.60;;;4.50;;
54259;SDS011;40172;53.022;7.012;2023-06-22T13:50:48;7.20;;;4.97;;
54259;SDS011;40172;53.022;7.012;2023-06-22T13:53:14;7.63;;;4.50;;
54259;SDS011;40172;53.022;7.012;2023-06-22T13:55:39;7.70;;;4.63;;
54259;SDS011;40172;53.022;7.012;2023-06-22T13:58:05;8.52;;;4.63;;
54259;SDS011;40172;53.022;7.012;2023-06-22T14:00:31;10.18;;;5.20;;
54259;SDS011;40172;53.022;7.012;2023-06-22T14:02:57;6.72;;;4.97;;
54259;SDS011;40172;53.022;7.012;2023-06-22T14:05:23;8.10;;;5.13;;
54259;SDS011;40172;53.022;7.012;2023-06-22T14:07:48;7.20;;;5.03;;
54259;SDS011;40172;53.022;7.012;2023-06-22T14:10:14;9.40;;;5.30;;
54259;SDS011;40172;53.022;7.012;2023-06-22T14:12:39;7.80;;;5.45;;
54259;SDS011;40172;53.022;7.012;2023-06-22T14:15:05;7.82;;;5.65;;
54259;SDS011;40172;53.022;7.012;2023-06-22T14:17:31;8.27;;;6.03;;
54259;SDS011;40172;53.022;7.012;2023-06-22T14:19:57;8.40;;;6.20;;
54259;SDS011;40172;53.022;7.012;2023-06-22T14:22:22;9.73;;;6.93;;
54259;SDS011;40172;53.022;7.012;2023-06-22T14:24:48;10.00;;;7.20;;
54259;SDS011;40172;53.022;7.012;2023-06-22T14:27:14;12.40;;;8.15;;